AEF301 EDDF-LEIB
Flight info
| Callsign | AEF301 |
|---|---|
| Flight time | N/A |
| Altitude | 31000 |
| Route | ANEKI2L/18 ANEKI Y163 HERBI/N0451F370 Y164 MOPAN DCT LUTIX DCT BENOT DCT NEMOS DCT GEVEA DCT INCUS/N0453F390 DCT BALSI DCT RETNO DCT TUPOX DCT MTG DCT DIVKO DCT VATIR DCT PIVUS DCT SULID DCT DIMIB DCT POS |
| Aircraft | A320/M-SDE3FGHIRWY/LB1 |
Departure
| Time | 2026-05-08 08:08 |
|---|---|
| Airport | Frankfurt Main Airport (EDDF) |
Arrival
| Time | N/A |
|---|---|
| Airport | Ibiza Airport (LEIB) |
| Time | Latitude | Longitude | Altitude | Speed | Heading |
|---|---|---|---|---|---|
| 2026-05-08 06:54 | 50.03389 | 8.58009 | 363 ft | 0 kts | 250° |
| 2026-05-08 07:55 | 50.03396 | 8.58039 | 360 ft | 4 kts | 251° |
| 2026-05-08 07:55 | 50.03404 | 8.58079 | 365 ft | 4 kts | 256° |
| 2026-05-08 07:56 | 50.03408 | 8.58120 | 357 ft | 4 kts | 270° |
| 2026-05-08 07:56 | 50.03404 | 8.58156 | 357 ft | 4 kts | 319° |
| 2026-05-08 07:56 | 50.03398 | 8.58163 | 356 ft | 0 kts | 340° |
| 2026-05-08 08:00 | 50.03401 | 8.58161 | 359 ft | 2 kts | 340° |
| 2026-05-08 08:00 | 50.03425 | 8.58147 | 363 ft | 4 kts | 340° |
| 2026-05-08 08:00 | 50.03466 | 8.58124 | 363 ft | 8 kts | 340° |
| 2026-05-08 08:01 | 50.03536 | 8.58084 | 365 ft | 12 kts | 339° |
| 2026-05-08 08:01 | 50.03567 | 8.58014 | 364 ft | 7 kts | 262° |
| 2026-05-08 08:01 | 50.03546 | 8.57924 | 364 ft | 12 kts | 250° |
| 2026-05-08 08:01 | 50.03510 | 8.57773 | 361 ft | 16 kts | 249° |
| 2026-05-08 08:02 | 50.03470 | 8.57609 | 362 ft | 16 kts | 250° |
| 2026-05-08 08:02 | 50.03433 | 8.57450 | 363 ft | 15 kts | 250° |
| 2026-05-08 08:02 | 50.03397 | 8.57300 | 358 ft | 14 kts | 249° |
| 2026-05-08 08:02 | 50.03363 | 8.57157 | 362 ft | 14 kts | 249° |
| 2026-05-08 08:03 | 50.03331 | 8.57023 | 357 ft | 14 kts | 250° |
| 2026-05-08 08:03 | 50.03292 | 8.56854 | 361 ft | 19 kts | 250° |
| 2026-05-08 08:03 | 50.03240 | 8.56636 | 352 ft | 24 kts | 249° |
| 2026-05-08 08:03 | 50.03180 | 8.56385 | 358 ft | 26 kts | 250° |
| 2026-05-08 08:04 | 50.03114 | 8.56111 | 354 ft | 29 kts | 249° |
| 2026-05-08 08:04 | 50.03050 | 8.55841 | 347 ft | 26 kts | 250° |
| 2026-05-08 08:04 | 50.02984 | 8.55564 | 351 ft | 28 kts | 249° |
| 2026-05-08 08:04 | 50.02915 | 8.55278 | 351 ft | 22 kts | 250° |
| 2026-05-08 08:05 | 50.02862 | 8.55054 | 354 ft | 23 kts | 249° |
| 2026-05-08 08:05 | 50.02800 | 8.54802 | 351 ft | 26 kts | 250° |
| 2026-05-08 08:05 | 50.02734 | 8.54526 | 338 ft | 28 kts | 249° |
| 2026-05-08 08:05 | 50.02677 | 8.54263 | 339 ft | 25 kts | 258° |
| 2026-05-08 08:06 | 50.02618 | 8.53991 | 335 ft | 28 kts | 249° |
| 2026-05-08 08:06 | 50.02559 | 8.53745 | 335 ft | 23 kts | 250° |
| 2026-05-08 08:06 | 50.02502 | 8.53506 | 336 ft | 24 kts | 249° |
| 2026-05-08 08:06 | 50.02440 | 8.53249 | 333 ft | 27 kts | 249° |
| 2026-05-08 08:07 | 50.02373 | 8.52972 | 334 ft | 23 kts | 249° |
| 2026-05-08 08:07 | 50.02325 | 8.52775 | 331 ft | 14 kts | 249° |
| 2026-05-08 08:07 | 50.02300 | 8.52662 | 332 ft | 11 kts | 256° |
| 2026-05-08 08:07 | 50.02265 | 8.52605 | 332 ft | 6 kts | 182° |
| 2026-05-08 08:08 | 50.02195 | 8.52606 | 335 ft | 24 kts | 179° |
| 2026-05-08 08:08 | 50.01744 | 8.52611 | 331 ft | 102 kts | 179° |
| 2026-05-08 08:08 | 50.00820 | 8.52621 | 347 ft | 159 kts | 180° |
| 2026-05-08 08:08 | 49.99719 | 8.52660 | 1064 ft | 156 kts | 175° |
| 2026-05-08 08:09 | 49.98627 | 8.52736 | 1845 ft | 158 kts | 175° |
| 2026-05-08 08:09 | 49.97464 | 8.52820 | 2353 ft | 178 kts | 175° |
| 2026-05-08 08:09 | 49.96155 | 8.52920 | 2757 ft | 200 kts | 176° |
| 2026-05-08 08:09 | 49.94679 | 8.53029 | 3204 ft | 223 kts | 176° |
| 2026-05-08 08:10 | 49.93094 | 8.53139 | 3883 ft | 231 kts | 176° |
| 2026-05-08 08:10 | 49.91480 | 8.53251 | 4837 ft | 233 kts | 177° |
| 2026-05-08 08:10 | 49.89849 | 8.53364 | 5792 ft | 236 kts | 177° |
| 2026-05-08 08:10 | 49.88197 | 8.53474 | 6719 ft | 239 kts | 177° |
| 2026-05-08 08:11 | 49.86524 | 8.53584 | 7661 ft | 242 kts | 178° |
| 2026-05-08 08:11 | 49.84822 | 8.53698 | 8573 ft | 247 kts | 178° |
| 2026-05-08 08:11 | 49.83096 | 8.53812 | 9485 ft | 251 kts | 178° |
| 2026-05-08 08:11 | 49.81340 | 8.53928 | 10399 ft | 254 kts | 178° |
| 2026-05-08 08:12 | 49.79558 | 8.54047 | 11304 ft | 258 kts | 178° |
| 2026-05-08 08:12 | 49.77753 | 8.54098 | 12170 ft | 262 kts | 185° |
| 2026-05-08 08:12 | 49.75852 | 8.53864 | 12600 ft | 286 kts | 186° |
| 2026-05-08 08:12 | 49.73781 | 8.53584 | 12956 ft | 311 kts | 186° |
| 2026-05-08 08:13 | 49.71545 | 8.53276 | 13236 ft | 335 kts | 186° |
| 2026-05-08 08:13 | 49.69161 | 8.52950 | 13680 ft | 350 kts | 186° |
| 2026-05-08 08:13 | 49.66710 | 8.52620 | 14400 ft | 356 kts | 186° |
| 2026-05-08 08:13 | 49.64225 | 8.52291 | 15176 ft | 361 kts | 186° |
| 2026-05-08 08:14 | 49.61744 | 8.51969 | 15921 ft | 365 kts | 186° |
| 2026-05-08 08:14 | 49.59202 | 8.51639 | 16660 ft | 369 kts | 186° |
| 2026-05-08 08:14 | 49.56635 | 8.51302 | 17378 ft | 372 kts | 187° |
| 2026-05-08 08:14 | 49.54042 | 8.50961 | 18070 ft | 376 kts | 187° |
| 2026-05-08 08:15 | 49.51423 | 8.50619 | 18741 ft | 380 kts | 187° |
| 2026-05-08 08:15 | 49.48780 | 8.50275 | 19398 ft | 383 kts | 187° |
| 2026-05-08 08:15 | 49.46112 | 8.49925 | 20036 ft | 386 kts | 187° |
| 2026-05-08 08:15 | 49.43419 | 8.49570 | 20650 ft | 390 kts | 187° |
| 2026-05-08 08:16 | 49.40708 | 8.49210 | 21255 ft | 393 kts | 187° |
| 2026-05-08 08:16 | 49.37971 | 8.48846 | 21842 ft | 396 kts | 187° |
| 2026-05-08 08:16 | 49.35214 | 8.48481 | 22414 ft | 399 kts | 187° |
| 2026-05-08 08:16 | 49.32435 | 8.48118 | 22962 ft | 403 kts | 187° |
| 2026-05-08 08:17 | 49.29632 | 8.47756 | 23502 ft | 406 kts | 187° |
| 2026-05-08 08:17 | 49.26809 | 8.47392 | 24040 ft | 408 kts | 187° |
| 2026-05-08 08:17 | 49.23966 | 8.47024 | 24558 ft | 411 kts | 187° |
| 2026-05-08 08:17 | 49.21106 | 8.46654 | 25066 ft | 414 kts | 187° |
| 2026-05-08 08:18 | 49.18224 | 8.46282 | 25557 ft | 417 kts | 187° |
| 2026-05-08 08:18 | 49.15322 | 8.45907 | 26037 ft | 420 kts | 187° |
| 2026-05-08 08:18 | 49.12407 | 8.45531 | 26503 ft | 422 kts | 187° |
| 2026-05-08 08:18 | 49.09472 | 8.45153 | 26966 ft | 424 kts | 187° |
| 2026-05-08 08:19 | 49.06522 | 8.44717 | 27408 ft | 426 kts | 191° |
| 2026-05-08 08:19 | 49.03622 | 8.43795 | 27849 ft | 426 kts | 195° |
| 2026-05-08 08:19 | 49.00724 | 8.42775 | 28288 ft | 428 kts | 195° |
| 2026-05-08 08:19 | 48.97809 | 8.41757 | 28707 ft | 430 kts | 195° |
| 2026-05-08 08:20 | 48.94883 | 8.40742 | 29092 ft | 433 kts | 195° |
| 2026-05-08 08:20 | 48.91941 | 8.39725 | 29483 ft | 434 kts | 195° |
| 2026-05-08 08:20 | 48.88986 | 8.38700 | 29865 ft | 436 kts | 195° |
| 2026-05-08 08:20 | 48.86022 | 8.37672 | 30238 ft | 438 kts | 195° |
| 2026-05-08 08:21 | 48.83047 | 8.36644 | 30587 ft | 440 kts | 195° |
| 2026-05-08 08:21 | 48.80056 | 8.35609 | 30939 ft | 442 kts | 195° |
| 2026-05-08 08:21 | 48.77064 | 8.34569 | 31397 ft | 440 kts | 195° |
| 2026-05-08 08:21 | 48.74089 | 8.33502 | 31868 ft | 439 kts | 196° |
| 2026-05-08 08:22 | 48.71129 | 8.32413 | 32325 ft | 437 kts | 196° |
| 2026-05-08 08:22 | 48.68179 | 8.31320 | 32758 ft | 436 kts | 196° |
| 2026-05-08 08:22 | 48.65240 | 8.30230 | 33174 ft | 435 kts | 196° |
| 2026-05-08 08:22 | 48.62305 | 8.29148 | 33593 ft | 434 kts | 196° |
| 2026-05-08 08:23 | 48.59373 | 8.28078 | 34004 ft | 433 kts | 195° |
| 2026-05-08 08:23 | 48.56447 | 8.27019 | 34414 ft | 432 kts | 195° |
| 2026-05-08 08:23 | 48.53524 | 8.25963 | 34800 ft | 432 kts | 195° |
| 2026-05-08 08:23 | 48.50602 | 8.24909 | 35168 ft | 432 kts | 195° |
| 2026-05-08 08:24 | 48.47681 | 8.23854 | 35534 ft | 432 kts | 195° |
| 2026-05-08 08:24 | 48.44763 | 8.22795 | 35895 ft | 432 kts | 195° |
| 2026-05-08 08:24 | 48.41848 | 8.21727 | 36233 ft | 432 kts | 195° |
| 2026-05-08 08:24 | 48.38927 | 8.20655 | 36545 ft | 432 kts | 195° |
| 2026-05-08 08:25 | 48.36009 | 8.19586 | 36846 ft | 432 kts | 195° |
| 2026-05-08 08:25 | 48.33127 | 8.18536 | 37067 ft | 430 kts | 195° |
| 2026-05-08 08:25 | 48.30234 | 8.17487 | 37110 ft | 426 kts | 195° |
| 2026-05-08 08:26 | 48.24529 | 8.15216 | 37112 ft | 422 kts | 202° |
| 2026-05-08 08:26 | 48.19243 | 8.11466 | 37111 ft | 420 kts | 208° |
| 2026-05-08 08:27 | 48.14010 | 8.07573 | 37098 ft | 420 kts | 208° |
| 2026-05-08 08:27 | 48.08770 | 8.03705 | 37106 ft | 420 kts | 207° |
| 2026-05-08 08:28 | 48.03525 | 7.99865 | 37104 ft | 420 kts | 207° |
| 2026-05-08 08:28 | 47.98284 | 7.96016 | 37106 ft | 420 kts | 207° |
| 2026-05-08 08:29 | 47.93037 | 7.92172 | 37101 ft | 420 kts | 207° |
| 2026-05-08 08:29 | 47.87790 | 7.88336 | 37108 ft | 420 kts | 207° |
| 2026-05-08 08:30 | 47.82539 | 7.84499 | 37102 ft | 420 kts | 207° |
| 2026-05-08 08:30 | 47.74667 | 7.78770 | 37084 ft | 420 kts | 207° |
| 2026-05-08 08:31 | 47.69417 | 7.74969 | 37082 ft | 420 kts | 207° |
| 2026-05-08 08:31 | 47.64167 | 7.71169 | 37083 ft | 420 kts | 207° |
| 2026-05-08 08:32 | 47.58912 | 7.67361 | 37085 ft | 420 kts | 207° |
| 2026-05-08 08:32 | 47.53660 | 7.63574 | 37095 ft | 420 kts | 207° |
| 2026-05-08 08:33 | 47.48402 | 7.59803 | 37089 ft | 420 kts | 207° |
| 2026-05-08 08:33 | 47.43145 | 7.56050 | 37095 ft | 419 kts | 207° |
| 2026-05-08 08:34 | 47.37895 | 7.52303 | 37087 ft | 419 kts | 207° |
| 2026-05-08 08:34 | 47.32691 | 7.48578 | 37084 ft | 418 kts | 207° |
| 2026-05-08 08:35 | 47.27461 | 7.44843 | 37085 ft | 417 kts | 207° |
| 2026-05-08 08:35 | 47.22234 | 7.41113 | 37084 ft | 417 kts | 207° |
| 2026-05-08 08:36 | 47.17173 | 7.36980 | 37093 ft | 415 kts | 218° |
| 2026-05-08 08:36 | 47.13186 | 7.30924 | 37084 ft | 413 kts | 232° |
| 2026-05-08 08:37 | 47.09610 | 7.24307 | 37083 ft | 413 kts | 231° |
| 2026-05-08 08:37 | 47.06015 | 7.17729 | 37095 ft | 413 kts | 231° |
| 2026-05-08 08:38 | 47.02421 | 7.11154 | 37084 ft | 413 kts | 231° |
| 2026-05-08 08:38 | 46.98833 | 7.04581 | 37084 ft | 413 kts | 231° |
| 2026-05-08 08:39 | 46.95245 | 6.98023 | 37081 ft | 413 kts | 231° |
| 2026-05-08 08:39 | 46.91624 | 6.91505 | 37081 ft | 412 kts | 227° |
| 2026-05-08 08:40 | 46.87305 | 6.85984 | 37082 ft | 412 kts | 220° |
| 2026-05-08 08:40 | 46.82854 | 6.80699 | 37080 ft | 412 kts | 220° |
| 2026-05-08 08:41 | 46.78400 | 6.75415 | 37078 ft | 412 kts | 220° |
| 2026-05-08 08:41 | 46.73976 | 6.70162 | 37076 ft | 412 kts | 220° |
| 2026-05-08 08:42 | 46.69528 | 6.64884 | 37076 ft | 412 kts | 220° |
| 2026-05-08 08:42 | 46.65076 | 6.59609 | 37079 ft | 412 kts | 220° |
| 2026-05-08 08:43 | 46.60618 | 6.54357 | 37083 ft | 412 kts | 220° |
| 2026-05-08 08:43 | 46.56151 | 6.49112 | 37084 ft | 412 kts | 220° |
| 2026-05-08 08:44 | 46.51697 | 6.43872 | 37094 ft | 412 kts | 220° |
| 2026-05-08 08:44 | 46.47241 | 6.38646 | 37086 ft | 411 kts | 220° |
| 2026-05-08 08:45 | 46.43544 | 6.34329 | 37086 ft | 411 kts | 220° |
| 2026-05-08 08:45 | 46.39091 | 6.29138 | 37083 ft | 410 kts | 220° |
| 2026-05-08 08:46 | 46.34644 | 6.23963 | 37080 ft | 410 kts | 220° |
| 2026-05-08 08:46 | 46.30197 | 6.18796 | 37080 ft | 410 kts | 220° |
| 2026-05-08 08:47 | 46.25473 | 6.14188 | 37081 ft | 413 kts | 206° |
| 2026-05-08 08:47 | 46.19911 | 6.12005 | 37082 ft | 418 kts | 192° |
| 2026-05-08 08:48 | 46.14160 | 6.10746 | 37082 ft | 418 kts | 192° |
| 2026-05-08 08:48 | 46.08419 | 6.09450 | 37080 ft | 417 kts | 192° |
| 2026-05-08 08:49 | 46.02681 | 6.08157 | 37069 ft | 417 kts | 192° |
| 2026-05-08 08:49 | 45.96942 | 6.06895 | 37061 ft | 417 kts | 192° |
| 2026-05-08 08:50 | 45.91203 | 6.05638 | 37057 ft | 417 kts | 192° |
| 2026-05-08 08:50 | 45.85459 | 6.04371 | 37054 ft | 418 kts | 192° |
| 2026-05-08 08:51 | 45.79713 | 6.03102 | 37052 ft | 418 kts | 192° |
| 2026-05-08 08:51 | 45.73962 | 6.01834 | 37054 ft | 418 kts | 192° |
| 2026-05-08 08:52 | 45.68205 | 6.00569 | 37056 ft | 418 kts | 192° |
| 2026-05-08 08:52 | 45.62450 | 5.99299 | 37059 ft | 419 kts | 192° |
| 2026-05-08 08:53 | 45.56723 | 5.98044 | 37060 ft | 419 kts | 192° |
| 2026-05-08 08:53 | 45.50918 | 5.96773 | 37061 ft | 419 kts | 192° |
| 2026-05-08 08:54 | 45.45172 | 5.95423 | 37058 ft | 418 kts | 194° |
| 2026-05-08 08:54 | 45.39496 | 5.93662 | 37058 ft | 417 kts | 196° |
| 2026-05-08 08:55 | 45.33878 | 5.91780 | 37054 ft | 417 kts | 196° |
| 2026-05-08 08:55 | 45.28214 | 5.89948 | 37056 ft | 418 kts | 195° |
| 2026-05-08 08:56 | 45.22532 | 5.88187 | 37053 ft | 418 kts | 195° |
| 2026-05-08 08:56 | 45.16844 | 5.86437 | 37054 ft | 418 kts | 195° |
| 2026-05-08 08:57 | 45.11146 | 5.84678 | 37056 ft | 418 kts | 195° |
| 2026-05-08 08:57 | 45.05464 | 5.82923 | 37059 ft | 418 kts | 195° |
| 2026-05-08 08:58 | 44.99787 | 5.81174 | 37054 ft | 418 kts | 195° |
| 2026-05-08 08:58 | 44.94140 | 5.79430 | 37052 ft | 418 kts | 195° |
| 2026-05-08 08:59 | 44.88449 | 5.77684 | 37055 ft | 418 kts | 195° |
| 2026-05-08 08:59 | 44.82766 | 5.75941 | 37050 ft | 418 kts | 195° |
| 2026-05-08 09:00 | 44.77077 | 5.74201 | 37051 ft | 418 kts | 195° |
| 2026-05-08 09:00 | 44.71389 | 5.72469 | 37051 ft | 418 kts | 195° |
| 2026-05-08 09:01 | 44.65711 | 5.70731 | 37053 ft | 418 kts | 195° |
| 2026-05-08 09:01 | 44.60027 | 5.69006 | 37052 ft | 417 kts | 195° |
| 2026-05-08 09:02 | 44.54348 | 5.67293 | 37054 ft | 418 kts | 195° |
| 2026-05-08 09:02 | 44.48669 | 5.65572 | 37057 ft | 417 kts | 195° |
| 2026-05-08 09:03 | 44.42989 | 5.63858 | 37051 ft | 417 kts | 195° |
| 2026-05-08 09:03 | 44.37351 | 5.61966 | 37056 ft | 415 kts | 202° |
| 2026-05-08 09:04 | 44.31992 | 5.59028 | 37055 ft | 414 kts | 204° |
| 2026-05-08 09:04 | 44.26659 | 5.56118 | 37053 ft | 414 kts | 204° |
| 2026-05-08 09:05 | 44.21291 | 5.53198 | 37056 ft | 415 kts | 204° |
| 2026-05-08 09:05 | 44.15917 | 5.50269 | 37055 ft | 415 kts | 205° |
| 2026-05-08 09:06 | 44.10529 | 5.47336 | 37051 ft | 417 kts | 205° |
| 2026-05-08 09:06 | 44.05108 | 5.44396 | 37035 ft | 419 kts | 206° |
| 2026-05-08 09:07 | 43.99678 | 5.41446 | 37033 ft | 419 kts | 206° |
| 2026-05-08 09:07 | 43.94234 | 5.38494 | 37033 ft | 420 kts | 206° |
| 2026-05-08 09:08 | 43.88800 | 5.35548 | 37038 ft | 420 kts | 206° |
| 2026-05-08 09:08 | 43.83355 | 5.32603 | 37038 ft | 420 kts | 206° |
| 2026-05-08 09:09 | 43.77911 | 5.29672 | 37039 ft | 420 kts | 206° |
| 2026-05-08 09:09 | 43.72462 | 5.26745 | 37041 ft | 420 kts | 207° |
| 2026-05-08 09:10 | 43.67011 | 5.23816 | 37039 ft | 420 kts | 207° |
| 2026-05-08 09:10 | 43.61561 | 5.20899 | 37045 ft | 420 kts | 207° |
| 2026-05-08 09:11 | 43.56137 | 5.18010 | 37042 ft | 420 kts | 207° |
| 2026-05-08 09:11 | 43.50687 | 5.15112 | 37033 ft | 419 kts | 207° |
| 2026-05-08 09:12 | 43.45243 | 5.12212 | 37032 ft | 419 kts | 207° |
| 2026-05-08 09:12 | 43.39820 | 5.09298 | 37029 ft | 416 kts | 210° |
| 2026-05-08 09:13 | 43.34960 | 5.05207 | 37025 ft | 408 kts | 220° |
| 2026-05-08 09:13 | 43.30277 | 5.00786 | 37025 ft | 408 kts | 220° |
| 2026-05-08 09:14 | 43.25586 | 4.96391 | 37026 ft | 408 kts | 220° |
| 2026-05-08 09:14 | 43.20898 | 4.91999 | 37030 ft | 408 kts | 220° |
| 2026-05-08 09:15 | 43.16209 | 4.87597 | 37034 ft | 408 kts | 220° |
| 2026-05-08 09:15 | 43.11530 | 4.83207 | 37042 ft | 408 kts | 220° |
| 2026-05-08 09:16 | 43.06846 | 4.78828 | 37045 ft | 408 kts | 220° |
| 2026-05-08 09:16 | 43.01921 | 4.74864 | 37048 ft | 411 kts | 215° |
| 2026-05-08 09:17 | 42.96912 | 4.71071 | 37050 ft | 411 kts | 215° |
| 2026-05-08 09:17 | 42.91944 | 4.67316 | 37049 ft | 411 kts | 215° |
| 2026-05-08 09:18 | 42.86944 | 4.63547 | 37051 ft | 410 kts | 215° |
| 2026-05-08 09:18 | 42.81950 | 4.59781 | 37051 ft | 409 kts | 216° |
| 2026-05-08 09:19 | 42.76972 | 4.56026 | 37052 ft | 409 kts | 216° |